sensor_id;sensor_type;location;lat;lon;timestamp;pressure;altitude;pressure_sealevel;temperature;humidity
79236;BME280;69062;47.460;18.812;2023-12-20T00:00:23;100377.19;;;-0.25;86.95
79236;BME280;69062;47.460;18.812;2023-12-20T00:02:26;100380.66;;;-0.23;86.95
79236;BME280;69062;47.460;18.812;2023-12-20T00:04:28;100372.88;;;-0.26;87.20
79236;BME280;69062;47.460;18.812;2023-12-20T00:06:31;100374.59;;;-0.13;87.11
79236;BME280;69062;47.460;18.812;2023-12-20T00:08:34;100372.00;;;-0.22;87.30
79236;BME280;69062;47.460;18.812;2023-12-20T00:10:37;100368.53;;;-0.24;87.65
79236;BME280;69062;47.460;18.812;2023-12-20T00:12:40;100368.56;;;-0.21;87.26
79236;BME280;69062;47.460;18.812;2023-12-20T00:14:43;100365.97;;;-0.27;87.84
79236;BME280;69062;47.460;18.812;2023-12-20T00:16:46;100356.44;;;-0.30;87.58
79236;BME280;69062;47.460;18.812;2023-12-20T00:18:49;100353.84;;;-0.30;88.12
79236;BME280;69062;47.460;18.812;2023-12-20T00:20:52;100346.06;;;-0.25;87.90
79236;BME280;69062;47.460;18.812;2023-12-20T00:22:56;100342.59;;;-0.30;88.42
79236;BME280;69062;47.460;18.812;2023-12-20T00:25:00;100344.34;;;-0.26;88.26
79236;BME280;69062;47.460;18.812;2023-12-20T00:27:03;100340.88;;;-0.25;88.37
79236;BME280;69062;47.460;18.812;2023-12-20T00:29:05;100346.03;;;-0.22;88.11
79236;BME280;69062;47.460;18.812;2023-12-20T00:31:08;100339.16;;;-0.26;88.58
79236;BME280;69062;47.460;18.812;2023-12-20T00:33:11;100335.66;;;-0.19;88.68
79236;BME280;69062;47.460;18.812;2023-12-20T00:35:15;100334.81;;;-0.18;88.92
79236;BME280;69062;47.460;18.812;2023-12-20T00:37:17;100332.19;;;-0.16;88.73
79236;BME280;69062;47.460;18.812;2023-12-20T00:39:20;100338.19;;;-0.02;88.81
79236;BME280;69062;47.460;18.812;2023-12-20T00:41:23;100332.09;;;0.10;88.52
79236;BME280;69062;47.460;18.812;2023-12-20T00:43:26;100328.63;;;0.11;88.62
79236;BME280;69062;47.460;18.812;2023-12-20T00:45:29;100320.00;;;0.09;88.32
79236;BME280;69062;47.460;18.812;2023-12-20T00:47:32;100317.44;;;0.03;88.39
79236;BME280;69062;47.460;18.812;2023-12-20T00:49:35;100319.19;;;-0.06;88.45
79236;BME280;69062;47.460;18.812;2023-12-20T00:51:37;100310.56;;;-0.11;88.75
79236;BME280;69062;47.460;18.812;2023-12-20T00:53:40;100302.75;;;-0.08;88.76
79236;BME280;69062;47.460;18.812;2023-12-20T00:55:43;100306.25;;;-0.13;89.26
79236;BME280;69062;47.460;18.812;2023-12-20T00:57:47;100294.97;;;-0.08;89.10
79236;BME280;69062;47.460;18.812;2023-12-20T00:59:50;100291.47;;;-0.01;89.25
79236;BME280;69062;47.460;18.812;2023-12-20T01:01:53;100293.16;;;0.10;88.74
79236;BME280;69062;47.460;18.812;2023-12-20T01:03:56;100294.84;;;0.17;88.61
79236;BME280;69062;47.460;18.812;2023-12-20T01:05:59;100289.69;;;0.12;88.67
79236;BME280;69062;47.460;18.812;2023-12-20T01:08:02;100284.53;;;0.03;88.64
79236;BME280;69062;47.460;18.812;2023-12-20T01:10:05;100281.06;;;0.06;88.65
79236;BME280;69062;47.460;18.812;2023-12-20T01:12:08;100268.94;;;0.08;88.78
79236;BME280;69062;47.460;18.812;2023-12-20T01:14:11;100274.13;;;0.06;88.51
79236;BME280;69062;47.460;18.812;2023-12-20T01:16:14;100271.53;;;0.08;88.35
79236;BME280;69062;47.460;18.812;2023-12-20T01:18:17;100266.31;;;0.12;88.40
79236;BME280;69062;47.460;18.812;2023-12-20T01:20:20;100261.97;;;0.14;88.42
79236;BME280;69062;47.460;18.812;2023-12-20T01:22:41;100257.69;;;0.10;88.45
79236;BME280;69062;47.460;18.812;2023-12-20T01:24:45;100257.66;;;0.13;88.39
79236;BME280;69062;47.460;18.812;2023-12-20T01:26:48;100254.19;;;0.13;88.37
79236;BME280;69062;47.460;18.812;2023-12-20T01:28:51;100252.44;;;0.18;88.53
79236;BME280;69062;47.460;18.812;2023-12-20T01:30:54;100255.84;;;0.27;88.78
79236;BME280;69062;47.460;18.812;2023-12-20T01:32:56;100254.94;;;0.33;88.45
79236;BME280;69062;47.460;18.812;2023-12-20T01:34:59;100252.31;;;0.35;88.24
79236;BME280;69062;47.460;18.812;2023-12-20T01:37:05;100244.56;;;0.28;88.47
79236;BME280;69062;47.460;18.812;2023-12-20T01:39:07;100236.81;;;0.21;88.41
79236;BME280;69062;47.460;18.812;2023-12-20T01:41:26;100232.50;;;0.21;88.58
79236;BME280;69062;47.460;18.812;2023-12-20T01:43:29;100231.63;;;0.24;88.54
79236;BME280;69062;47.460;18.812;2023-12-20T01:45:40;100222.94;;;0.28;88.35
79236;BME280;69062;47.460;18.812;2023-12-20T01:47:42;100221.22;;;0.30;88.51
79236;BME280;69062;47.460;18.812;2023-12-20T01:49:45;100216.81;;;0.38;88.49
79236;BME280;69062;47.460;18.812;2023-12-20T01:51:50;100225.41;;;0.46;88.25
79236;BME280;69062;47.460;18.812;2023-12-20T01:53:55;100221.91;;;0.53;88.26
79236;BME280;69062;47.460;18.812;2023-12-20T01:55:59;100223.66;;;0.51;88.10
79236;BME280;69062;47.460;18.812;2023-12-20T01:58:02;100217.59;;;0.51;87.75
79236;BME280;69062;47.460;18.812;2023-12-20T02:00:06;100214.97;;;0.49;87.45
79236;BME280;69062;47.460;18.812;2023-12-20T02:02:11;100207.25;;;0.42;87.42
79236;BME280;69062;47.460;18.812;2023-12-20T02:04:15;100202.09;;;0.36;87.82
79236;BME280;69062;47.460;18.812;2023-12-20T02:06:21;100192.66;;;0.30;88.08
79236;BME280;69062;47.460;18.812;2023-12-20T02:08:25;100180.53;;;0.27;88.24
79236;BME280;69062;47.460;18.812;2023-12-20T02:10:28;100178.78;;;0.31;88.04
79236;BME280;69062;47.460;18.812;2023-12-20T02:12:31;100185.69;;;0.34;88.10
79236;BME280;69062;47.460;18.812;2023-12-20T02:14:34;100177.09;;;0.24;88.04
79236;BME280;69062;47.460;18.812;2023-12-20T02:16:37;100184.78;;;0.38;88.02
79236;BME280;69062;47.460;18.812;2023-12-20T02:18:40;100180.38;;;0.47;87.93
79236;BME280;69062;47.460;18.812;2023-12-20T02:20:45;100185.56;;;0.49;87.55
79236;BME280;69062;47.460;18.812;2023-12-20T02:22:47;100181.22;;;0.52;87.43
79236;BME280;69062;47.460;18.812;2023-12-20T02:24:50;100183.75;;;0.57;87.47
79236;BME280;69062;47.460;18.812;2023-12-20T02:26:53;100182.94;;;0.52;87.43
79236;BME280;69062;47.460;18.812;2023-12-20T02:28:56;100183.06;;;0.38;87.41
79236;BME280;69062;47.460;18.812;2023-12-20T02:30:58;100174.38;;;0.41;87.51
79236;BME280;69062;47.460;18.812;2023-12-20T02:33:03;100176.16;;;0.34;87.65
79236;BME280;69062;47.460;18.812;2023-12-20T02:35:10;100166.69;;;0.27;87.81
79236;BME280;69062;47.460;18.812;2023-12-20T02:37:13;100169.38;;;0.15;87.94
79236;BME280;69062;47.460;18.812;2023-12-20T02:39:16;100154.66;;;0.14;88.46
79236;BME280;69062;47.460;18.812;2023-12-20T02:41:18;100156.47;;;0.04;88.51
79236;BME280;69062;47.460;18.812;2023-12-20T02:43:21;100145.22;;;0.04;88.58
79236;BME280;69062;47.460;18.812;2023-12-20T02:45:24;100146.91;;;0.09;88.66
79236;BME280;69062;47.460;18.812;2023-12-20T02:47:28;100145.16;;;0.13;88.82
79236;BME280;69062;47.460;18.812;2023-12-20T02:49:32;100147.63;;;0.26;88.86
79236;BME280;69062;47.460;18.812;2023-12-20T02:51:35;100138.09;;;0.30;88.70
79236;BME280;69062;47.460;18.812;2023-12-20T02:53:40;100143.22;;;0.38;88.70
79236;BME280;69062;47.460;18.812;2023-12-20T02:55:43;100138.00;;;0.41;88.56
79236;BME280;69062;47.460;18.812;2023-12-20T02:57:46;100141.44;;;0.43;88.51
79236;BME280;69062;47.460;18.812;2023-12-20T02:59:49;100132.81;;;0.41;88.38
79236;BME280;69062;47.460;18.812;2023-12-20T03:01:52;100141.44;;;0.46;88.52
79236;BME280;69062;47.460;18.812;2023-12-20T03:03:54;100132.78;;;0.42;88.49
79236;BME280;69062;47.460;18.812;2023-12-20T03:05:58;100131.91;;;0.43;88.07
79236;BME280;69062;47.460;18.812;2023-12-20T03:08:01;100130.22;;;0.36;88.14
79236;BME280;69062;47.460;18.812;2023-12-20T03:10:04;100131.06;;;0.41;88.08
79236;BME280;69062;47.460;18.812;2023-12-20T03:12:21;100125.97;;;0.31;88.19
79236;BME280;69062;47.460;18.812;2023-12-20T03:14:25;100132.03;;;0.31;88.45
79236;BME280;69062;47.460;18.812;2023-12-20T03:16:27;100138.97;;;0.29;88.61
79236;BME280;69062;47.460;18.812;2023-12-20T03:18:30;100138.97;;;0.29;88.64
79236;BME280;69062;47.460;18.812;2023-12-20T03:20:33;100146.75;;;0.31;88.41
79236;BME280;69062;47.460;18.812;2023-12-20T03:22:36;100141.56;;;0.31;88.31
79236;BME280;69062;47.460;18.812;2023-12-20T03:24:39;100133.72;;;0.35;88.45
79236;BME280;69062;47.460;18.812;2023-12-20T03:26:42;100143.19;;;0.44;88.33
79236;BME280;69062;47.460;18.812;2023-12-20T03:28:45;100142.25;;;0.49;88.09
79236;BME280;69062;47.460;18.812;2023-12-20T03:30:47;100138.81;;;0.46;87.51
79236;BME280;69062;47.460;18.812;2023-12-20T03:32:51;100146.56;;;0.50;88.02
79236;BME280;69062;47.460;18.812;2023-12-20T03:34:54;100142.25;;;0.52;87.74
79236;BME280;69062;47.460;18.812;2023-12-20T03:36:57;100136.31;;;0.35;87.59
79236;BME280;69062;47.460;18.812;2023-12-20T03:39:00;100135.50;;;0.32;87.76
79236;BME280;69062;47.460;18.812;2023-12-20T03:41:03;100115.66;;;0.21;87.61
79236;BME280;69062;47.460;18.812;2023-12-20T03:43:05;100121.72;;;0.19;87.72
79236;BME280;69062;47.460;18.812;2023-12-20T03:45:08;100118.25;;;0.21;87.88
79236;BME280;69062;47.460;18.812;2023-12-20T03:47:11;100111.38;;;0.14;88.41
79236;BME280;69062;47.460;18.812;2023-12-20T03:49:14;100118.38;;;0.08;87.91
79236;BME280;69062;47.460;18.812;2023-12-20T03:51:17;100109.72;;;0.09;87.87
79236;BME280;69062;47.460;18.812;2023-12-20T03:53:20;100120.97;;;0.09;88.50
79236;BME280;69062;47.460;18.812;2023-12-20T03:55:22;100114.09;;;-0.03;88.50
79236;BME280;69062;47.460;18.812;2023-12-20T03:57:25;100119.34;;;-0.09;88.51
79236;BME280;69062;47.460;18.812;2023-12-20T03:59:28;100111.56;;;-0.09;88.64
79236;BME280;69062;47.460;18.812;2023-12-20T04:01:31;100115.88;;;-0.09;88.24
79236;BME280;69062;47.460;18.812;2023-12-20T04:03:34;100113.22;;;0.03;88.28
79236;BME280;69062;47.460;18.812;2023-12-20T04:05:36;100114.91;;;0.06;88.17
79236;BME280;69062;47.460;18.812;2023-12-20T04:07:39;100110.53;;;0.12;88.33
79236;BME280;69062;47.460;18.812;2023-12-20T04:09:42;100119.19;;;0.16;87.80
79236;BME280;69062;47.460;18.812;2023-12-20T04:11:45;100117.41;;;0.18;87.71
79236;BME280;69062;47.460;18.812;2023-12-20T04:13:48;100115.72;;;0.14;87.58
79236;BME280;69062;47.460;18.812;2023-12-20T04:15:50;100123.53;;;0.11;87.83
79236;BME280;69062;47.460;18.812;2023-12-20T04:17:54;100121.78;;;0.16;87.90
79236;BME280;69062;47.460;18.812;2023-12-20T04:19:57;100117.34;;;0.25;87.64
79236;BME280;69062;47.460;18.812;2023-12-20T04:22:00;100107.00;;;0.19;87.18
79236;BME280;69062;47.460;18.812;2023-12-20T04:24:03;100109.56;;;0.25;87.14
79236;BME280;69062;47.460;18.812;2023-12-20T04:26:05;100099.31;;;0.09;87.09
79236;BME280;69062;47.460;18.812;2023-12-20T04:28:09;100090.81;;;-0.12;87.28
79236;BME280;69062;47.460;18.812;2023-12-20T04:30:12;100090.03;;;-0.20;87.42
79236;BME280;69062;47.460;18.812;2023-12-20T04:32:14;100082.28;;;-0.28;87.86
79236;BME280;69062;47.460;18.812;2023-12-20T04:34:18;100083.91;;;-0.13;88.08
79236;BME280;69062;47.460;18.812;2023-12-20T04:36:20;100073.66;;;-0.31;87.84
79236;BME280;69062;47.460;18.812;2023-12-20T04:38:23;100074.44;;;-0.18;87.75
79236;BME280;69062;47.460;18.812;2023-12-20T04:40:26;100071.00;;;-0.22;87.39
79236;BME280;69062;47.460;18.812;2023-12-20T04:42:29;100068.41;;;-0.20;87.39
79236;BME280;69062;47.460;18.812;2023-12-20T04:44:32;100060.56;;;-0.16;87.48
79236;BME280;69062;47.460;18.812;2023-12-20T04:46:34;100061.47;;;-0.23;87.83
79236;BME280;69062;47.460;18.812;2023-12-20T04:48:38;100052.94;;;-0.36;87.73
79236;BME280;69062;47.460;18.812;2023-12-20T04:50:40;100038.28;;;-0.41;87.97
79236;BME280;69062;47.460;18.812;2023-12-20T04:52:43;100027.97;;;-0.52;87.72
79236;BME280;69062;47.460;18.812;2023-12-20T04:54:46;100036.63;;;-0.53;87.69
79236;BME280;69062;47.460;18.812;2023-12-20T04:56:49;100049.50;;;-0.38;87.87
79236;BME280;69062;47.460;18.812;2023-12-20T04:58:52;100035.59;;;-0.29;88.11
79236;BME280;69062;47.460;18.812;2023-12-20T05:00:55;100034.84;;;-0.42;87.93
79236;BME280;69062;47.460;18.812;2023-12-20T05:02:58;100024.56;;;-0.57;87.81
79236;BME280;69062;47.460;18.812;2023-12-20T05:05:00;100020.31;;;-0.70;88.42
79236;BME280;69062;47.460;18.812;2023-12-20T05:07:03;100014.25;;;-0.68;87.97
79236;BME280;69062;47.460;18.812;2023-12-20T05:09:08;100023.63;;;-0.48;87.94
79236;BME280;69062;47.460;18.812;2023-12-20T05:11:11;100021.03;;;-0.51;88.01
79236;BME280;69062;47.460;18.812;2023-12-20T05:13:16;100039.16;;;-0.42;88.27
79236;BME280;69062;47.460;18.812;2023-12-20T05:15:19;100040.88;;;-0.44;88.24
79236;BME280;69062;47.460;18.812;2023-12-20T05:17:22;100054.66;;;-0.35;87.83
79236;BME280;69062;47.460;18.812;2023-12-20T05:19:24;100051.28;;;-0.47;87.94
79236;BME280;69062;47.460;18.812;2023-12-20T05:21:27;100068.50;;;-0.37;87.81
79236;BME280;69062;47.460;18.812;2023-12-20T05:23:30;100063.38;;;-0.43;87.57
79236;BME280;69062;47.460;18.812;2023-12-20T05:25:33;100069.44;;;-0.46;87.71
79236;BME280;69062;47.460;18.812;2023-12-20T05:27:36;100074.63;;;-0.46;88.19
79236;BME280;69062;47.460;18.812;2023-12-20T05:29:39;100074.59;;;-0.41;88.43
79236;BME280;69062;47.460;18.812;2023-12-20T05:31:41;100066.81;;;-0.44;88.50
79236;BME280;69062;47.460;18.812;2023-12-20T05:33:44;100042.69;;;-0.56;88.25
79236;BME280;69062;47.460;18.812;2023-12-20T05:35:47;100045.38;;;-0.68;88.50
79236;BME280;69062;47.460;18.812;2023-12-20T05:37:50;100040.16;;;-0.62;88.39
79236;BME280;69062;47.460;18.812;2023-12-20T05:39:53;100047.94;;;-0.63;88.78
79236;BME280;69062;47.460;18.812;2023-12-20T05:41:56;100043.59;;;-0.57;88.57
79236;BME280;69062;47.460;18.812;2023-12-20T05:43:58;100036.72;;;-0.65;88.67
79236;BME280;69062;47.460;18.812;2023-12-20T05:46:01;100030.72;;;-0.76;88.76
79236;BME280;69062;47.460;18.812;2023-12-20T05:48:04;100037.63;;;-0.75;88.54
79236;BME280;69062;47.460;18.812;2023-12-20T05:50:08;100038.44;;;-0.67;88.28
79236;BME280;69062;47.460;18.812;2023-12-20T05:52:11;100032.38;;;-0.66;88.58
79236;BME280;69062;47.460;18.812;2023-12-20T05:54:14;100030.66;;;-0.66;88.37
79236;BME280;69062;47.460;18.812;2023-12-20T05:56:17;100017.78;;;-0.81;88.52
79236;BME280;69062;47.460;18.812;2023-12-20T05:58:19;100013.44;;;-0.76;88.39
79236;BME280;69062;47.460;18.812;2023-12-20T06:00:22;100010.88;;;-0.82;88.33
79236;BME280;69062;47.460;18.812;2023-12-20T06:02:25;100008.28;;;-0.79;88.53
79236;BME280;69062;47.460;18.812;2023-12-20T06:04:28;100016.88;;;-0.74;88.86
79236;BME280;69062;47.460;18.812;2023-12-20T06:06:31;100012.53;;;-0.73;89.50
79236;BME280;69062;47.460;18.812;2023-12-20T06:08:34;100009.97;;;-0.72;89.21
79236;BME280;69062;47.460;18.812;2023-12-20T06:10:36;100010.78;;;-0.68;89.35
79236;BME280;69062;47.460;18.812;2023-12-20T06:12:39;100002.25;;;-0.79;89.04
79236;BME280;69062;47.460;18.812;2023-12-20T06:14:43;100004.97;;;-1.05;89.74
79236;BME280;69062;47.460;18.812;2023-12-20T06:16:47;99992.84;;;-1.00;89.35
79236;BME280;69062;47.460;18.812;2023-12-20T06:18:50;100002.34;;;-0.98;89.14
79236;BME280;69062;47.460;18.812;2023-12-20T06:20:53;99998.00;;;-0.97;89.25
79236;BME280;69062;47.460;18.812;2023-12-20T06:22:55;100017.00;;;-0.92;89.11
79236;BME280;69062;47.460;18.812;2023-12-20T06:24:58;100015.25;;;-0.92;89.12
79236;BME280;69062;47.460;18.812;2023-12-20T06:27:01;100029.94;;;-0.95;89.32
79236;BME280;69062;47.460;18.812;2023-12-20T06:29:04;100046.41;;;-1.02;88.75
79236;BME280;69062;47.460;18.812;2023-12-20T06:31:07;100051.56;;;-0.93;88.50
79236;BME280;69062;47.460;18.812;2023-12-20T06:33:10;100061.03;;;-0.89;89.05
79236;BME280;69062;47.460;18.812;2023-12-20T06:35:15;100066.19;;;-0.85;89.12
79236;BME280;69062;47.460;18.812;2023-12-20T06:37:19;100056.66;;;-0.76;88.82
79236;BME280;69062;47.460;18.812;2023-12-20T06:39:51;100066.13;;;-0.69;88.88
79236;BME280;69062;47.460;18.812;2023-12-20T06:41:57;100051.38;;;-0.66;88.98
79236;BME280;69062;47.460;18.812;2023-12-20T06:44:01;100066.94;;;-0.63;88.81
79236;BME280;69062;47.460;18.812;2023-12-20T06:46:08;100066.03;;;-0.54;88.79
79236;BME280;69062;47.460;18.812;2023-12-20T06:48:14;100073.75;;;-0.43;88.46
79236;BME280;69062;47.460;18.812;2023-12-20T06:50:18;100068.59;;;-0.52;88.35
79236;BME280;69062;47.460;18.812;2023-12-20T06:52:24;100062.59;;;-0.58;88.51
79236;BME280;69062;47.460;18.812;2023-12-20T06:54:28;100066.00;;;-0.51;88.66
79236;BME280;69062;47.460;18.812;2023-12-20T06:56:34;100053.00;;;-0.46;88.50
79236;BME280;69062;47.460;18.812;2023-12-20T06:58:37;100058.97;;;-0.37;88.33
79236;BME280;69062;47.460;18.812;2023-12-20T07:00:44;100063.31;;;-0.37;88.32
79236;BME280;69062;47.460;18.812;2023-12-20T07:02:48;100065.00;;;-0.27;88.24
79236;BME280;69062;47.460;18.812;2023-12-20T07:04:54;100051.97;;;-0.21;88.02
79236;BME280;69062;47.460;18.812;2023-12-20T07:06:58;100057.97;;;-0.13;87.72
79236;BME280;69062;47.460;18.812;2023-12-20T07:09:03;100056.25;;;-0.14;87.61
79236;BME280;69062;47.460;18.812;2023-12-20T07:11:06;100060.56;;;-0.16;87.44
79236;BME280;69062;47.460;18.812;2023-12-20T07:13:10;100057.94;;;-0.11;87.48
79236;BME280;69062;47.460;18.812;2023-12-20T07:15:13;100059.63;;;-0.06;87.27
79236;BME280;69062;47.460;18.812;2023-12-20T07:17:16;100047.59;;;-0.13;87.15
79236;BME280;69062;47.460;18.812;2023-12-20T07:19:19;100045.75;;;-0.03;87.05
79236;BME280;69062;47.460;18.812;2023-12-20T07:21:22;100036.25;;;-0.04;86.87
79236;BME280;69062;47.460;18.812;2023-12-20T07:23:25;100050.09;;;-0.04;87.24
79236;BME280;69062;47.460;18.812;2023-12-20T07:25:30;100049.22;;;-0.03;86.68
79236;BME280;69062;47.460;18.812;2023-12-20T07:27:35;100047.47;;;-0.02;86.06
79236;BME280;69062;47.460;18.812;2023-12-20T07:29:38;100049.28;;;-0.07;85.60
79236;BME280;69062;47.460;18.812;2023-12-20T07:31:41;100047.63;;;-0.19;86.04
79236;BME280;69062;47.460;18.812;2023-12-20T07:33:44;100042.34;;;-0.08;86.72
79236;BME280;69062;47.460;18.812;2023-12-20T07:35:59;100049.25;;;-0.06;86.32
79236;BME280;69062;47.460;18.812;2023-12-20T07:38:16;100035.47;;;-0.15;86.83
79236;BME280;69062;47.460;18.812;2023-12-20T07:40:19;100052.72;;;-0.07;86.33
79236;BME280;69062;47.460;18.812;2023-12-20T07:42:22;100049.31;;;-0.15;86.56
79236;BME280;69062;47.460;18.812;2023-12-20T07:44:24;100051.03;;;-0.12;86.02
79236;BME280;69062;47.460;18.812;2023-12-20T07:46:27;100044.97;;;-0.11;86.32
79236;BME280;69062;47.460;18.812;2023-12-20T07:48:30;100042.34;;;-0.07;86.14
79236;BME280;69062;47.460;18.812;2023-12-20T07:50:33;100047.53;;;-0.07;86.12
79236;BME280;69062;47.460;18.812;2023-12-20T07:52:36;100043.25;;;-0.15;86.12
79236;BME280;69062;47.460;18.812;2023-12-20T07:54:39;100047.56;;;-0.11;86.12
79236;BME280;69062;47.460;18.812;2023-12-20T07:56:42;100039.81;;;-0.13;85.94
79236;BME280;69062;47.460;18.812;2023-12-20T07:58:45;100038.19;;;-0.29;86.34
79236;BME280;69062;47.460;18.812;2023-12-20T08:00:55;100040.78;;;-0.31;85.92
79236;BME280;69062;47.460;18.812;2023-12-20T08:02:58;100035.53;;;-0.20;85.81
79236;BME280;69062;47.460;18.812;2023-12-20T08:05:00;100038.91;;;-0.10;86.07
79236;BME280;69062;47.460;18.812;2023-12-20T08:07:04;100032.78;;;-0.02;85.49
79236;BME280;69062;47.460;18.812;2023-12-20T08:09:06;100028.41;;;0.04;85.40
79236;BME280;69062;47.460;18.812;2023-12-20T08:11:09;100027.59;;;-0.03;85.62
79236;BME280;69062;47.460;18.812;2023-12-20T08:13:12;100023.31;;;-0.06;86.52
79236;BME280;69062;47.460;18.812;2023-12-20T08:15:15;100031.16;;;-0.13;85.50
79236;BME280;69062;47.460;18.812;2023-12-20T08:17:17;100038.94;;;-0.16;86.23
79236;BME280;69062;47.460;18.812;2023-12-20T08:19:21;100044.16;;;-0.18;86.12
79236;BME280;69062;47.460;18.812;2023-12-20T08:21:24;100038.94;;;-0.15;85.46
79236;BME280;69062;47.460;18.812;2023-12-20T08:23:27;100041.53;;;-0.15;86.03
79236;BME280;69062;47.460;18.812;2023-12-20T08:25:33;100046.63;;;-0.03;85.85
79236;BME280;69062;47.460;18.812;2023-12-20T08:27:42;100048.44;;;-0.15;85.92
79236;BME280;69062;47.460;18.812;2023-12-20T08:29:45;100055.34;;;-0.10;86.16
79236;BME280;69062;47.460;18.812;2023-12-20T08:31:52;100055.25;;;-0.01;86.02
79236;BME280;69062;47.460;18.812;2023-12-20T08:33:55;100048.47;;;-0.14;85.76
79236;BME280;69062;47.460;18.812;2023-12-20T08:35:58;100053.63;;;-0.12;86.19
79236;BME280;69062;47.460;18.812;2023-12-20T08:38:01;100051.78;;;-0.01;85.83
79236;BME280;69062;47.460;18.812;2023-12-20T08:40:04;100044.78;;;0.10;85.54
79236;BME280;69062;47.460;18.812;2023-12-20T08:42:08;100043.94;;;0.07;85.07
79236;BME280;69062;47.460;18.812;2023-12-20T08:44:11;100046.66;;;-0.09;84.79
79236;BME280;69062;47.460;18.812;2023-12-20T08:46:14;100045.63;;;0.12;85.27
79236;BME280;69062;47.460;18.812;2023-12-20T08:48:17;100055.94;;;0.20;85.26
79236;BME280;69062;47.460;18.812;2023-12-20T08:50:20;100054.22;;;0.22;84.83
79236;BME280;69062;47.460;18.812;2023-12-20T08:52:23;100057.84;;;-0.01;83.88
79236;BME280;69062;47.460;18.812;2023-12-20T08:54:26;100059.47;;;0.16;84.73
79236;BME280;69062;47.460;18.812;2023-12-20T08:56:29;100052.47;;;0.21;84.61
79236;BME280;69062;47.460;18.812;2023-12-20T08:58:32;100066.34;;;0.20;85.04
79236;BME280;69062;47.460;18.812;2023-12-20T09:00:36;100065.53;;;0.13;85.45
79236;BME280;69062;47.460;18.812;2023-12-20T09:02:39;100066.38;;;0.17;84.97
79236;BME280;69062;47.460;18.812;2023-12-20T09:04:42;100071.47;;;0.26;84.25
79236;BME280;69062;47.460;18.812;2023-12-20T09:06:45;100061.09;;;0.24;84.43
79236;BME280;69062;47.460;18.812;2023-12-20T09:08:48;100060.13;;;0.35;84.40
79236;BME280;69062;47.460;18.812;2023-12-20T09:10:51;100065.31;;;0.38;84.46
79236;BME280;69062;47.460;18.812;2023-12-20T09:12:54;100059.31;;;0.31;83.62
79236;BME280;69062;47.460;18.812;2023-12-20T09:15:00;100046.34;;;0.30;83.87
79236;BME280;69062;47.460;18.812;2023-12-20T09:17:05;100044.47;;;0.45;83.68
79236;BME280;69062;47.460;18.812;2023-12-20T09:19:10;100044.38;;;0.53;83.69
79236;BME280;69062;47.460;18.812;2023-12-20T09:21:13;100040.13;;;0.44;83.66
79236;BME280;69062;47.460;18.812;2023-12-20T09:23:16;100040.16;;;0.41;83.79
79236;BME280;69062;47.460;18.812;2023-12-20T09:25:20;100032.56;;;0.21;84.08
79236;BME280;69062;47.460;18.812;2023-12-20T09:27:22;100022.22;;;0.17;83.16
79236;BME280;69062;47.460;18.812;2023-12-20T09:29:25;100027.31;;;0.26;83.81
79236;BME280;69062;47.460;18.812;2023-12-20T09:31:28;100034.31;;;0.22;84.03
79236;BME280;69062;47.460;18.812;2023-12-20T09:33:31;100020.47;;;0.22;83.79
79236;BME280;69062;47.460;18.812;2023-12-20T09:35:34;100018.66;;;0.27;84.26
79236;BME280;69062;47.460;18.812;2023-12-20T09:37:37;100019.38;;;0.41;83.97
79236;BME280;69062;47.460;18.812;2023-12-20T09:39:40;100012.47;;;0.40;84.15
79236;BME280;69062;47.460;18.812;2023-12-20T09:41:44;100022.66;;;0.57;84.49
79236;BME280;69062;47.460;18.812;2023-12-20T09:43:50;100007.03;;;0.62;84.76
79236;BME280;69062;47.460;18.812;2023-12-20T09:46:00;100007.97;;;0.54;84.37
79236;BME280;69062;47.460;18.812;2023-12-20T09:48:05;100000.16;;;0.59;84.12
79236;BME280;69062;47.460;18.812;2023-12-20T09:50:08;100007.84;;;0.67;84.15
79236;BME280;69062;47.460;18.812;2023-12-20T09:52:13;100005.16;;;0.71;83.62
79236;BME280;69062;47.460;18.812;2023-12-20T09:54:17;99993.22;;;0.58;84.17
79236;BME280;69062;47.460;18.812;2023-12-20T09:56:21;99999.97;;;0.74;84.33
79236;BME280;69062;47.460;18.812;2023-12-20T09:58:24;99992.13;;;0.76;83.06
79236;BME280;69062;47.460;18.812;2023-12-20T10:00:27;100004.28;;;0.74;84.04
79236;BME280;69062;47.460;18.812;2023-12-20T10:02:31;99999.09;;;0.74;84.18
79236;BME280;69062;47.460;18.812;2023-12-20T10:04:34;99989.41;;;0.85;83.90
79236;BME280;69062;47.460;18.812;2023-12-20T10:06:39;99988.34;;;1.00;84.07
79236;BME280;69062;47.460;18.812;2023-12-20T10:08:42;99986.41;;;1.14;83.20
79236;BME280;69062;47.460;18.812;2023-12-20T10:10:45;99982.03;;;1.19;82.68
79236;BME280;69062;47.460;18.812;2023-12-20T10:13:03;99966.25;;;1.31;82.10
79236;BME280;69062;47.460;18.812;2023-12-20T10:15:06;99979.16;;;1.36;81.46
79236;BME280;69062;47.460;18.812;2023-12-20T10:17:09;99978.31;;;1.35;81.77
79236;BME280;69062;47.460;18.812;2023-12-20T10:19:12;99974.97;;;1.27;82.60
79236;BME280;69062;47.460;18.812;2023-12-20T10:21:19;99975.06;;;1.20;82.13
79236;BME280;69062;47.460;18.812;2023-12-20T10:23:22;99969.53;;;1.43;81.70
79236;BME280;69062;47.460;18.812;2023-12-20T10:25:25;99959.97;;;1.43;81.08
79236;BME280;69062;47.460;18.812;2023-12-20T10:27:28;99957.47;;;1.37;80.68
79236;BME280;69062;47.460;18.812;2023-12-20T10:29:35;99960.84;;;1.45;81.54
79236;BME280;69062;47.460;18.812;2023-12-20T10:31:40;99953.97;;;1.40;81.92
79236;BME280;69062;47.460;18.812;2023-12-20T10:33:44;99956.81;;;1.24;82.66
79236;BME280;69062;47.460;18.812;2023-12-20T10:35:47;99950.75;;;1.22;82.45
79236;BME280;69062;47.460;18.812;2023-12-20T10:37:55;99952.50;;;1.22;81.96
79236;BME280;69062;47.460;18.812;2023-12-20T10:40:03;99952.38;;;1.31;82.80
79236;BME280;69062;47.460;18.812;2023-12-20T10:42:10;99943.81;;;1.23;81.80